Terminal Aerodrome Forecast
Issued by NWS Amarillo, TX

Home | Current Version | Previous Version | Text Only | Print | Product List | Glossary On
Versions: 1 2 3 4 5 6 7 8 9 10 11 12 13 14
386
FTUS44 KAMA 191739
TAFAMA
TAF
KAMA 191739Z 1918/2018 15018G28KT P6SM FEW250
     FM200200 14016KT P6SM BKN250
     FM201000 14020G30KT P6SM SCT010 BKN040=

USA.gov is the U.S. government's official web portal to all federal, state and local government web resources and services.